Jemez Springs, NM (87025)

8:02 AM MDT on August 29, 2014 (GMT -0600)
Village of Jemez Springs | Change Station
CLOSE
Current Station
Personal Weather Station
Location: Jemez Springs, NM
Elevation: 6240 ft
Nearby Weather Stations

Elev 6240 ft 35.77 °N, 106.69 °W | Updated 1 second ago

Clear
Clear
53.8 °F
Feels Like 53.8 °F
N
2.9
Wind Variable Wind from NW
Gusts 4.9 mph

Today
High -- | Low -- °F
--% Chance of Precip.
Yesterday
High -- | Low -- °F
Precip. -- in
6:36 AM 7:38 PM
Waxing Crescent, 14% visible
Pressure 30.29 in
Visibility 10.0 miles
Clouds Clear
Dew Point 42 °F
Humidity 65%
Rainfall 0.00 in
Snow Depth 2 in
UV 1 out of 12
Pollen 8.30 out of 12
Air Quality Not available.
Flu Activity Not available.
METAR KLAM 291355Z AUTO 35006KT 10SM CLR 15/05 A3029 RMK AO2 T01510045

More Conditions Fewer Conditions

Pressure 30.29 in
Visibility 10.0 miles
Clouds Clear
Dew Point 42 °F
Humidity 65%
Rainfall 0.00 in
Snow Depth 2 in
UV 1 out of 12
Pollen 8.30 out of 12
Air Quality Not available.
Flu Activity Not available.
METAR KLAM 291355Z AUTO 35006KT 10SM CLR 15/05 A3029 RMK AO2 T01510045

More Conditions Fewer Conditions

10-Day Weather Forecast

Almanac

Astronomy

Aug. 29, 2014 Rise Set
Actual Time 6:36 AM MDT 7:38 PM MDT
Civil Twilight 6:10 AM MDT 8:04 PM MDT
Nautical Twilight 5:38 AM MDT 8:35 PM MDT
Astronomical Twilight 5:06 AM MDT 9:07 PM MDT
Moon 10:19 AM MDT 9:47 PM MDT
Length of Visible Light 13h 54m
Length of Day
13h 01m
Tomorrow will be 2m 9s shorter.
Waxing Crescent, 14% of the Moon is Illuminated
Today
Waxing Crescent
Sep 2
First Quarter
Sep 8
Full
Sep 15
Last Quarter
Sep 24
New

Today's Extremes

State Highs State Lows

Community

WunderPhotos

Upload Photos

1,748,240 photos uploaded!

Nearby

Snow Depth

Station Depth Elevation
Quemazon 2 in 9500 ft
Bateman 0 in 9300 ft
Wesner Springs 2 in 11120 ft
Hopewell 0 in 10000 ft
Gallegos Peak 1 in 9800 ft

Earthquake Activity

City Distance Mag. Time & Date
No recent earthquake activity has been reported nearby.
Minimum magnitude displayed is 2.5.

Coastal Water Temperatures

Place Temperature
No Stations Reporting

Nearby Weather Stations